createdAt,value
2022-11-10T00:02:08.805Z,10.07
2022-11-10T00:04:54.072Z,10.70
2022-11-10T00:07:39.605Z,10.60
2022-11-10T00:10:24.577Z,8.87
2022-11-10T00:13:09.897Z,9.13
2022-11-10T00:16:13.815Z,9.60
2022-11-10T00:18:59.002Z,8.30
2022-11-10T00:21:44.340Z,8.93
2022-11-10T00:24:29.682Z,9.13
2022-11-10T00:27:15.016Z,9.97
2022-11-10T00:30:00.764Z,9.20
2022-11-10T00:32:48.228Z,9.67
2022-11-10T00:35:33.487Z,9.70
2022-11-10T00:38:18.819Z,8.73
2022-11-10T00:41:04.780Z,10.30
2022-11-10T00:43:50.095Z,11.30
2022-11-10T00:46:35.323Z,10.40
2022-11-10T00:49:20.514Z,8.53
2022-11-10T00:52:05.892Z,10.73
2022-11-10T00:54:50.937Z,10.13
2022-11-10T00:57:36.368Z,11.10
2022-11-10T01:00:21.874Z,11.43
2022-11-10T01:03:07.274Z,10.20
2022-11-10T01:05:52.152Z,9.80
2022-11-10T01:08:38.298Z,11.03
2022-11-10T01:11:25.697Z,10.93
2022-11-10T01:14:10.664Z,10.97
2022-11-10T01:16:55.953Z,11.27
2022-11-10T01:19:42.578Z,11.20
2022-11-10T01:22:27.542Z,10.73
2022-11-10T01:25:13.073Z,11.97
2022-11-10T01:27:58.240Z,10.73
2022-11-10T01:30:43.462Z,11.50
2022-11-10T01:33:29.163Z,11.17
2022-11-10T01:36:14.289Z,10.47
2022-11-10T01:39:00.964Z,10.50
2022-11-10T01:41:45.838Z,8.43
2022-11-10T01:44:31.228Z,8.27
2022-11-10T01:47:16.469Z,8.67
2022-11-10T01:50:02.053Z,8.43
2022-11-10T01:52:50.725Z,7.70
2022-11-10T01:55:39.417Z,9.80
2022-11-10T01:58:30.444Z,8.33
2022-11-10T02:01:15.960Z,7.50
2022-11-10T02:04:08.425Z,9.97
2022-11-10T02:06:54.541Z,10.20
2022-11-10T02:09:39.807Z,9.43
2022-11-10T02:12:37.297Z,6.30
2022-11-10T02:15:22.961Z,6.47
2022-11-10T02:18:08.091Z,5.90
2022-11-10T02:20:53.266Z,5.83
2022-11-10T02:23:38.536Z,6.00
2022-11-10T02:26:27.887Z,5.00
2022-11-10T02:29:13.493Z,5.50
2022-11-10T02:31:58.441Z,5.63
2022-11-10T02:34:43.916Z,5.93
2022-11-10T02:37:29.060Z,5.70
2022-11-10T02:40:14.321Z,5.30
2022-11-10T02:42:59.638Z,6.10
2022-11-10T02:45:45.994Z,5.63
2022-11-10T02:48:31.539Z,5.70
2022-11-10T02:51:16.757Z,6.27
2022-11-10T02:54:01.995Z,6.43
2022-11-10T02:56:47.374Z,5.90
2022-11-10T02:59:32.947Z,5.97
2022-11-10T03:02:18.362Z,5.80
2022-11-10T03:05:03.916Z,5.90
2022-11-10T03:07:56.636Z,5.90
2022-11-10T03:10:42.251Z,6.17
2022-11-10T03:13:35.637Z,6.63
2022-11-10T03:16:32.789Z,6.00
2022-11-10T03:19:18.079Z,5.60
2022-11-10T03:22:03.334Z,4.93
2022-11-10T03:24:48.669Z,5.90
2022-11-10T03:27:34.012Z,5.77
2022-11-10T03:30:19.214Z,5.17
2022-11-10T03:33:04.917Z,5.10
2022-11-10T03:35:49.863Z,4.70
2022-11-10T03:38:35.305Z,5.07
2022-11-10T03:41:21.105Z,4.10
2022-11-10T03:44:06.987Z,4.47
2022-11-10T03:46:52.039Z,4.17
2022-11-10T03:49:37.129Z,4.20
2022-11-10T03:52:22.440Z,5.13
2022-11-10T03:55:08.110Z,4.40
2022-11-10T03:57:53.278Z,4.93
2022-11-10T04:00:38.588Z,4.87
2022-11-10T04:03:24.996Z,4.63
2022-11-10T04:06:30.542Z,3.67
2022-11-10T04:09:15.708Z,4.60
2022-11-10T04:12:24.490Z,4.27
2022-11-10T04:15:30.230Z,4.40
2022-11-10T04:18:21.404Z,3.67
2022-11-10T04:21:06.715Z,4.47
2022-11-10T04:23:51.988Z,4.90
2022-11-10T04:26:38.812Z,6.40
2022-11-10T04:29:24.382Z,6.70
2022-11-10T04:32:09.612Z,5.20
2022-11-10T04:34:54.804Z,6.50
2022-11-10T04:37:40.253Z,9.50
2022-11-10T04:40:25.457Z,10.30
2022-11-10T04:43:10.880Z,13.63
2022-11-10T04:45:56.928Z,10.03
2022-11-10T04:48:41.798Z,11.80
2022-11-10T04:51:33.443Z,9.50
2022-11-10T04:54:19.011Z,7.00
2022-11-10T04:57:04.255Z,4.67
2022-11-10T04:59:49.667Z,4.50
2022-11-10T05:02:39.353Z,3.90
2022-11-10T05:05:25.218Z,5.37
2022-11-10T05:08:10.692Z,4.50
2022-11-10T05:10:55.999Z,4.03
2022-11-10T05:13:41.899Z,4.40
2022-11-10T05:16:27.184Z,4.13
2022-11-10T05:19:12.612Z,4.70
2022-11-10T05:21:58.064Z,4.53
2022-11-10T05:24:43.246Z,4.83
2022-11-10T05:27:29.927Z,4.50
2022-11-10T05:30:15.659Z,4.70
2022-11-10T05:33:00.621Z,4.50
2022-11-10T05:35:45.929Z,3.90
2022-11-10T05:38:31.282Z,3.70
2022-11-10T05:41:16.638Z,3.43
2022-11-10T05:44:01.974Z,3.70
2022-11-10T05:46:48.318Z,4.10
2022-11-10T05:49:33.646Z,4.70
2022-11-10T05:52:18.849Z,6.47
2022-11-10T05:55:04.357Z,6.37
2022-11-10T05:57:51.383Z,7.30
2022-11-10T06:00:36.785Z,6.10
2022-11-10T06:03:22.220Z,5.90
2022-11-10T06:06:08.183Z,7.07
2022-11-10T06:08:53.482Z,5.57
2022-11-10T06:11:38.893Z,6.03
2022-11-10T06:14:24.127Z,5.17
2022-11-10T06:17:09.351Z,5.30
2022-11-10T06:19:54.666Z,4.47
2022-11-10T06:22:40.626Z,5.13
2022-11-10T06:25:26.567Z,5.20
2022-11-10T06:28:11.482Z,5.07
2022-11-10T06:30:59.017Z,5.80
2022-11-10T06:33:44.515Z,5.83
2022-11-10T06:36:29.370Z,5.37
2022-11-10T06:39:14.768Z,4.67
2022-11-10T06:41:59.964Z,5.67
2022-11-10T06:44:45.244Z,5.13
2022-11-10T06:47:30.454Z,6.23
2022-11-10T06:50:15.689Z,6.20
2022-11-10T06:53:01.166Z,11.70
2022-11-10T06:55:46.422Z,18.30
2022-11-10T06:58:31.904Z,19.87
2022-11-10T07:01:22.126Z,19.73
2022-11-10T07:04:19.834Z,14.87
2022-11-10T07:07:06.001Z,16.97
2022-11-10T07:09:51.041Z,15.87
2022-11-10T07:12:36.494Z,14.30
2022-11-10T07:15:21.539Z,16.90
2022-11-10T07:18:06.873Z,14.80
2022-11-10T07:20:52.074Z,14.67
2022-11-10T07:23:37.436Z,14.47
2022-11-10T07:26:22.754Z,15.83
2022-11-10T07:29:07.959Z,13.77
2022-11-10T07:31:53.559Z,14.63
2022-11-10T07:34:38.600Z,15.60
2022-11-10T07:37:24.135Z,14.80
2022-11-10T07:40:10.303Z,16.57
2022-11-10T07:42:55.338Z,16.27
2022-11-10T07:45:40.569Z,16.63
2022-11-10T07:48:25.787Z,15.00
2022-11-10T07:51:11.012Z,14.27
2022-11-10T07:53:56.379Z,13.97
2022-11-10T07:56:42.378Z,12.87
2022-11-10T07:59:27.626Z,14.03
2022-11-10T08:02:13.222Z,14.27
2022-11-10T08:04:58.240Z,16.13
2022-11-10T08:07:43.560Z,18.70
2022-11-10T08:10:30.421Z,16.83
2022-11-10T08:13:15.519Z,10.33
2022-11-10T08:16:01.281Z,6.70
2022-11-10T08:18:46.548Z,6.57
2022-11-10T08:21:31.674Z,5.03
2022-11-10T08:24:16.971Z,6.40
2022-11-10T08:27:02.334Z,4.70
2022-11-10T08:29:47.743Z,5.47
2022-11-10T08:32:33.032Z,4.60
2022-11-10T08:35:18.113Z,4.03
2022-11-10T08:38:09.632Z,4.10
2022-11-10T08:40:56.481Z,4.00
2022-11-10T08:43:41.948Z,4.30
2022-11-10T08:46:27.179Z,8.47
2022-11-10T08:49:12.474Z,7.30
2022-11-10T08:51:57.638Z,3.80
2022-11-10T08:54:42.774Z,4.00
2022-11-10T08:57:28.033Z,5.53
2022-11-10T09:00:14.943Z,4.33
2022-11-10T09:03:09.038Z,3.93
2022-11-10T09:05:58.239Z,4.80
2022-11-10T09:08:43.980Z,4.23
2022-11-10T09:11:30.750Z,3.77
2022-11-10T09:14:15.732Z,4.70
2022-11-10T09:17:01.088Z,3.03
2022-11-10T09:19:46.408Z,3.50
2022-11-10T09:22:31.747Z,3.90
2022-11-10T09:25:17.049Z,3.37
2022-11-10T09:28:03.609Z,3.10
2022-11-10T09:30:50.469Z,3.67
2022-11-10T09:33:35.638Z,2.23
2022-11-10T09:36:20.919Z,3.13
2022-11-10T09:39:07.377Z,2.97
2022-11-10T09:41:53.106Z,3.73
2022-11-10T09:44:52.000Z,2.33
2022-11-10T09:48:01.411Z,2.57
2022-11-10T09:50:52.856Z,3.00
2022-11-10T09:54:10.379Z,3.33
2022-11-10T09:57:00.326Z,3.47
2022-11-10T09:59:45.555Z,3.13
2022-11-10T10:02:45.375Z,2.97
2022-11-10T10:05:30.318Z,3.07
2022-11-10T10:08:24.697Z,3.40
2022-11-10T10:11:34.698Z,3.90
2022-11-10T10:14:42.049Z,3.60
2022-11-10T10:17:41.804Z,2.87
2022-11-10T10:20:42.128Z,3.20
2022-11-10T10:24:02.102Z,2.83
2022-11-10T10:26:41.404Z,3.57
2022-11-10T10:29:44.275Z,2.30
2022-11-10T10:32:29.575Z,2.40
2022-11-10T10:35:16.911Z,2.13
2022-11-10T10:38:04.550Z,2.17
2022-11-10T10:40:52.176Z,2.10
2022-11-10T10:43:37.257Z,1.83
2022-11-10T10:46:35.760Z,3.03
2022-11-10T10:49:29.505Z,3.00
2022-11-10T10:52:16.929Z,3.57
2022-11-10T10:55:08.014Z,2.53
2022-11-10T10:58:00.132Z,2.00
2022-11-10T11:00:51.723Z,3.10
2022-11-10T11:03:40.483Z,2.10
2022-11-10T11:06:32.515Z,3.90
2022-11-10T11:09:25.007Z,2.53
2022-11-10T11:12:22.113Z,2.47
2022-11-10T11:15:29.552Z,3.17
2022-11-10T11:18:20.587Z,2.90
2022-11-10T11:21:33.578Z,2.57
2022-11-10T11:24:32.788Z,2.30
2022-11-10T11:27:28.609Z,2.37
2022-11-10T11:30:18.592Z,3.17
2022-11-10T11:33:09.973Z,2.60
2022-11-10T11:36:08.977Z,2.50
2022-11-10T11:39:15.516Z,2.70
2022-11-10T11:42:09.469Z,4.03
2022-11-10T11:45:31.510Z,3.60
2022-11-10T11:48:42.253Z,2.53
2022-11-10T11:51:29.992Z,3.00
2022-11-10T11:54:30.166Z,3.00
2022-11-10T11:57:40.569Z,3.07
2022-11-10T12:00:26.280Z,3.90
2022-11-10T12:03:19.274Z,2.80
2022-11-10T12:06:26.054Z,2.33
2022-11-10T12:09:35.904Z,2.63
2022-11-10T12:12:53.362Z,2.03
2022-11-10T12:15:49.653Z,2.50
2022-11-10T12:18:38.180Z,2.60
2022-11-10T12:21:29.660Z,2.07
2022-11-10T12:24:33.751Z,3.43
2022-11-10T12:27:26.512Z,2.37
2022-11-10T12:30:14.053Z,3.60
2022-11-10T12:33:05.294Z,2.63
2022-11-10T12:35:53.980Z,2.77
2022-11-10T12:39:18.710Z,2.30
2022-11-10T12:42:05.428Z,2.30
2022-11-10T12:44:56.755Z,2.47
2022-11-10T12:47:45.520Z,2.10
2022-11-10T12:51:10.015Z,2.30
2022-11-10T12:53:55.403Z,2.17
2022-11-10T12:56:47.844Z,2.17
2022-11-10T12:59:41.578Z,2.10
2022-11-10T13:02:42.962Z,2.53
2022-11-10T13:05:33.486Z,2.63
2022-11-10T13:08:42.530Z,2.33
2022-11-10T13:11:35.492Z,2.47
2022-11-10T13:14:24.156Z,2.00
2022-11-10T13:17:28.140Z,2.70
2022-11-10T13:20:38.632Z,1.80
2022-11-10T13:23:26.578Z,2.33
2022-11-10T13:26:55.321Z,2.87
2022-11-10T13:29:43.418Z,2.03
2022-11-10T13:32:33.469Z,2.37
2022-11-10T13:35:45.377Z,3.63
2022-11-10T13:38:39.731Z,2.63
2022-11-10T13:41:26.550Z,2.20
2022-11-10T13:44:24.824Z,2.53
2022-11-10T13:47:09.855Z,1.80
2022-11-10T13:50:20.997Z,2.40
2022-11-10T13:53:18.435Z,2.17
2022-11-10T13:56:24.614Z,2.53
2022-11-10T13:59:22.696Z,2.37
2022-11-10T14:02:46.997Z,1.63
2022-11-10T14:05:33.952Z,2.30
2022-11-10T14:08:23.471Z,1.87
2022-11-10T14:11:24.129Z,2.07
2022-11-10T14:14:23.881Z,2.17
2022-11-10T14:17:28.366Z,1.90
2022-11-10T14:20:32.636Z,1.93
2022-11-10T14:23:42.419Z,1.90
2022-11-10T14:26:42.970Z,2.30
2022-11-10T14:29:35.975Z,2.40
2022-11-10T14:32:24.736Z,2.20
2022-11-10T14:35:22.558Z,1.60
2022-11-10T14:38:22.549Z,2.30
2022-11-10T14:41:17.487Z,2.40
2022-11-10T14:44:05.779Z,1.93
2022-11-10T14:46:51.494Z,2.30
2022-11-10T14:49:36.591Z,3.00
2022-11-10T14:52:22.259Z,5.63
2022-11-10T14:55:13.248Z,2.60
2022-11-10T14:58:10.444Z,3.40
2022-11-10T15:00:55.815Z,3.33
2022-11-10T15:03:42.707Z,3.63
2022-11-10T15:06:28.604Z,3.53
2022-11-10T15:09:24.273Z,2.80
2022-11-10T15:12:21.164Z,2.90
2022-11-10T15:15:22.464Z,2.63
2022-11-10T15:18:30.001Z,2.83
2022-11-10T15:21:20.216Z,2.77
2022-11-10T15:24:06.336Z,3.00
2022-11-10T15:26:51.590Z,2.60
2022-11-10T15:29:37.894Z,3.10
2022-11-10T15:32:28.584Z,2.60
2022-11-10T15:35:22.811Z,2.50
2022-11-10T15:38:19.613Z,1.87
2022-11-10T15:41:11.699Z,3.00
2022-11-10T15:43:57.216Z,2.13
2022-11-10T15:46:43.158Z,2.30
2022-11-10T15:49:32.769Z,2.30
2022-11-10T15:52:21.552Z,3.10
2022-11-10T15:55:21.935Z,2.17
2022-11-10T15:58:19.372Z,3.00
2022-11-10T16:01:04.694Z,2.70
2022-11-10T16:03:49.976Z,2.77
2022-11-10T16:06:35.266Z,2.93
2022-11-10T16:09:20.571Z,3.20
2022-11-10T16:12:09.169Z,3.80
2022-11-10T16:14:55.251Z,7.40
2022-11-10T16:17:40.989Z,7.23
2022-11-10T16:20:26.153Z,5.60
2022-11-10T16:23:11.535Z,4.07
2022-11-10T16:25:58.005Z,3.67
2022-11-10T16:28:47.503Z,4.47
2022-11-10T16:31:35.042Z,10.10
2022-11-10T16:34:20.017Z,12.30
2022-11-10T16:37:05.299Z,11.47
2022-11-10T16:39:50.545Z,11.40
2022-11-10T16:42:35.988Z,9.77
2022-11-10T16:45:23.850Z,7.70
2022-11-10T16:48:09.465Z,8.80
2022-11-10T16:50:57.675Z,10.23
2022-11-10T16:53:42.855Z,8.87
2022-11-10T16:56:28.226Z,17.33
2022-11-10T16:59:13.682Z,33.87
2022-11-10T17:01:59.183Z,25.70
2022-11-10T17:04:44.367Z,20.33
2022-11-10T17:07:29.990Z,18.77
2022-11-10T17:10:17.595Z,15.27
2022-11-10T17:13:03.172Z,13.20
2022-11-10T17:15:49.554Z,19.33
2022-11-10T17:18:35.425Z,95.53
2022-11-10T17:21:22.579Z,44.73
2022-11-10T17:24:11.018Z,27.73
2022-11-10T17:26:56.629Z,13.53
2022-11-10T17:29:42.264Z,9.17
2022-11-10T17:32:50.142Z,8.60
2022-11-10T17:35:40.496Z,14.40
2022-11-10T17:38:29.484Z,17.07
2022-11-10T17:41:19.696Z,18.47
2022-11-10T17:44:05.013Z,17.90
2022-11-10T17:46:50.209Z,14.13
2022-11-10T17:49:35.540Z,11.47
2022-11-10T17:52:20.820Z,10.00
2022-11-10T17:55:06.139Z,9.37
2022-11-10T17:57:51.400Z,11.60
2022-11-10T18:00:36.569Z,11.87
2022-11-10T18:03:23.099Z,12.90
2022-11-10T18:06:08.612Z,25.03
2022-11-10T18:08:53.615Z,22.80
2022-11-10T18:11:38.943Z,20.57
2022-11-10T18:14:24.092Z,16.07
2022-11-10T18:17:09.600Z,16.23
2022-11-10T18:19:54.983Z,15.37
2022-11-10T18:22:41.073Z,14.37
2022-11-10T18:25:26.253Z,13.90
2022-11-10T18:28:13.932Z,15.07
2022-11-10T18:31:04.887Z,12.67
2022-11-10T18:33:53.033Z,10.53
2022-11-10T18:36:38.511Z,34.17
2022-11-10T18:39:23.807Z,25.77
2022-11-10T18:42:09.310Z,13.67
2022-11-10T18:44:54.976Z,13.50
2022-11-10T18:47:40.468Z,12.50
2022-11-10T18:50:25.538Z,12.73
2022-11-10T18:53:10.789Z,10.27
2022-11-10T18:55:56.583Z,8.97
2022-11-10T18:58:42.156Z,9.03
2022-11-10T19:01:27.856Z,7.67
2022-11-10T19:04:13.156Z,8.40
2022-11-10T19:06:58.456Z,6.87
2022-11-10T19:09:44.337Z,7.67
2022-11-10T19:12:30.536Z,5.73
2022-11-10T19:15:15.959Z,6.30
2022-11-10T19:18:01.121Z,5.93
2022-11-10T19:20:46.346Z,6.57
2022-11-10T19:23:31.801Z,6.90
2022-11-10T19:26:22.453Z,8.40
2022-11-10T19:29:08.764Z,6.20
2022-11-10T19:31:54.099Z,5.80
2022-11-10T19:34:39.423Z,6.80
2022-11-10T19:37:24.807Z,6.80
2022-11-10T19:40:10.840Z,5.60
2022-11-10T19:42:55.798Z,5.37
2022-11-10T19:45:42.284Z,5.77
2022-11-10T19:48:27.503Z,5.40
2022-11-10T19:51:14.637Z,8.00
2022-11-10T19:54:02.415Z,7.50
2022-11-10T19:56:47.404Z,7.77
2022-11-10T19:59:33.080Z,8.00
2022-11-10T20:02:18.796Z,14.70
2022-11-10T20:05:13.686Z,17.93
2022-11-10T20:08:15.363Z,25.77
2022-11-10T20:11:08.099Z,17.30
2022-11-10T20:13:55.969Z,21.27
2022-11-10T20:16:41.456Z,15.30
2022-11-10T20:19:26.709Z,13.67
2022-11-10T20:22:12.848Z,13.37
2022-11-10T20:24:58.657Z,10.77
2022-11-10T20:27:43.925Z,10.27
2022-11-10T20:30:29.758Z,16.53
2022-11-10T20:33:14.735Z,14.30
2022-11-10T20:36:21.037Z,13.20
2022-11-10T20:39:06.891Z,10.20
2022-11-10T20:41:52.663Z,8.60
2022-11-10T20:44:38.169Z,9.40
2022-11-10T20:47:24.245Z,7.17
2022-11-10T20:50:14.787Z,7.50
2022-11-10T20:53:01.762Z,6.60
2022-11-10T20:55:54.329Z,5.73
2022-11-10T20:58:39.447Z,6.03
2022-11-10T21:01:25.277Z,6.17
2022-11-10T21:04:11.187Z,5.47
2022-11-10T21:06:56.623Z,5.80
2022-11-10T21:09:41.887Z,5.33
2022-11-10T21:12:45.587Z,5.30
2022-11-10T21:15:30.599Z,8.70
2022-11-10T21:18:17.058Z,8.90
2022-11-10T21:21:03.668Z,9.00
2022-11-10T21:23:56.994Z,18.50
2022-11-10T21:26:42.115Z,16.50
2022-11-10T21:29:27.276Z,16.43
2022-11-10T21:32:12.570Z,11.30
2022-11-10T21:34:57.752Z,10.50
2022-11-10T21:37:42.979Z,10.10
2022-11-10T21:40:28.112Z,8.73
2022-11-10T21:43:13.277Z,10.80
2022-11-10T21:46:01.633Z,10.33
2022-11-10T21:48:47.060Z,9.20
2022-11-10T21:51:32.058Z,11.13
2022-11-10T21:54:17.179Z,9.77
2022-11-10T21:57:02.216Z,9.97
2022-11-10T21:59:47.495Z,10.80
2022-11-10T22:02:32.744Z,7.93
2022-11-10T22:05:18.077Z,9.53
2022-11-10T22:08:04.576Z,8.10
2022-11-10T22:11:08.364Z,9.00
2022-11-10T22:14:12.118Z,9.90
2022-11-10T22:17:15.997Z,14.07
2022-11-10T22:20:01.222Z,11.83
2022-11-10T22:22:46.504Z,11.43
2022-11-10T22:25:32.015Z,19.57
2022-11-10T22:28:19.626Z,14.23
2022-11-10T22:31:06.994Z,10.40
2022-11-10T22:33:52.225Z,10.10
2022-11-10T22:36:37.569Z,9.60
2022-11-10T22:39:23.057Z,10.33
2022-11-10T22:42:30.724Z,9.23
2022-11-10T22:45:15.933Z,6.60
2022-11-10T22:48:19.858Z,9.20
2022-11-10T22:51:05.375Z,6.40
2022-11-10T22:53:50.229Z,6.70
2022-11-10T22:56:35.741Z,7.63
2022-11-10T22:59:21.113Z,6.50
2022-11-10T23:02:06.294Z,7.17
2022-11-10T23:04:51.521Z,7.23
2022-11-10T23:07:36.666Z,7.03
2022-11-10T23:10:22.094Z,7.80
2022-11-10T23:13:07.491Z,7.40
2022-11-10T23:15:54.270Z,31.63
2022-11-10T23:18:42.154Z,64.40
2022-11-10T23:21:29.296Z,22.27
2022-11-10T23:24:14.450Z,14.53
2022-11-10T23:26:59.753Z,5.60
2022-11-10T23:29:45.009Z,4.17
2022-11-10T23:32:30.375Z,4.50
2022-11-10T23:35:15.539Z,4.70
2022-11-10T23:38:00.879Z,4.57
2022-11-10T23:40:46.017Z,6.03
2022-11-10T23:43:32.029Z,5.80
2022-11-10T23:46:17.397Z,5.37
2022-11-10T23:49:02.508Z,5.03
2022-11-10T23:51:48.018Z,5.30
2022-11-10T23:54:33.168Z,4.97
2022-11-10T23:57:18.450Z,5.97
